createdAt,value
2022-09-20T00:00:05.476Z,297.30
2022-09-20T00:01:05.438Z,285.40
2022-09-20T00:02:05.407Z,274.80
2022-09-20T00:03:05.398Z,262.90
2022-09-20T00:04:05.950Z,252.30
2022-09-20T00:05:05.475Z,251.60
2022-09-20T00:06:05.370Z,245.40
2022-09-20T00:07:05.351Z,239.10
2022-09-20T00:08:05.336Z,233.40
2022-09-20T00:09:05.324Z,230.00
2022-09-20T00:10:05.353Z,223.30
2022-09-20T00:11:05.328Z,214.80
2022-09-20T00:12:05.295Z,213.40
2022-09-20T00:13:05.283Z,205.00
2022-09-20T00:14:05.278Z,198.10
2022-09-20T00:15:05.302Z,202.00
2022-09-20T00:16:05.279Z,198.50
2022-09-20T00:17:05.272Z,217.10
2022-09-20T00:18:05.229Z,224.70
2022-09-20T00:19:05.354Z,219.80
2022-09-20T00:20:05.203Z,211.70
2022-09-20T00:21:05.228Z,212.40
2022-09-20T00:22:05.194Z,209.30
2022-09-20T00:23:05.164Z,205.80
2022-09-20T00:24:05.145Z,213.40
2022-09-20T00:25:05.152Z,216.20
2022-09-20T00:26:05.188Z,211.60
2022-09-20T00:27:05.119Z,215.60
2022-09-20T00:28:05.107Z,213.10
2022-09-20T00:29:05.104Z,222.00
2022-09-20T00:30:05.083Z,237.20
2022-09-20T00:31:05.098Z,301.40
2022-09-20T00:32:05.106Z,312.20
2022-09-20T00:33:05.047Z,264.70
2022-09-20T00:34:05.128Z,277.40
2022-09-20T00:35:05.025Z,305.80
2022-09-20T00:36:05.056Z,316.50
2022-09-20T00:37:05.010Z,323.00
2022-09-20T00:38:05.004Z,317.00
2022-09-20T00:39:04.983Z,309.60
2022-09-20T00:40:04.994Z,318.10
2022-09-20T00:41:04.983Z,308.10
2022-09-20T00:42:04.973Z,318.20
2022-09-20T00:43:04.948Z,299.30
2022-09-20T00:44:04.917Z,284.60
2022-09-20T00:45:04.898Z,278.10
2022-09-20T00:46:05.026Z,282.00
2022-09-20T00:47:04.876Z,287.50
2022-09-20T00:48:04.873Z,287.50
2022-09-20T00:49:05.045Z,293.90
2022-09-20T00:50:04.868Z,282.70
2022-09-20T00:51:04.895Z,275.10
2022-09-20T00:52:04.844Z,268.40
2022-09-20T00:53:04.816Z,263.10
2022-09-20T00:54:04.831Z,270.10
2022-09-20T00:55:04.809Z,272.60
2022-09-20T00:56:04.844Z,268.90
2022-09-20T00:57:04.830Z,276.60
2022-09-20T00:58:04.758Z,278.30
2022-09-20T00:59:04.772Z,285.00
2022-09-20T01:00:04.734Z,288.60
2022-09-20T01:01:04.825Z,295.10
2022-09-20T01:02:04.782Z,299.20
2022-09-20T01:03:04.703Z,299.60
2022-09-20T01:04:04.778Z,300.40
2022-09-20T01:05:04.685Z,307.40
2022-09-20T01:06:04.712Z,307.80
2022-09-20T01:07:04.665Z,306.30
2022-09-20T01:08:04.682Z,316.40
2022-09-20T01:09:04.653Z,355.80
2022-09-20T01:10:04.627Z,376.90
2022-09-20T01:11:04.660Z,408.80
2022-09-20T01:12:04.606Z,341.50
2022-09-20T01:13:04.607Z,336.80
2022-09-20T01:14:04.592Z,368.90
2022-09-20T01:15:04.587Z,360.10
2022-09-20T01:16:04.649Z,341.70
2022-09-20T01:17:04.570Z,315.80
2022-09-20T01:18:04.534Z,307.30
2022-09-20T01:19:04.516Z,307.20
2022-09-20T01:20:04.511Z,306.10
2022-09-20T01:21:04.531Z,306.80
2022-09-20T01:22:04.511Z,302.30
2022-09-20T01:23:04.507Z,296.00
2022-09-20T01:24:04.488Z,297.60
2022-09-20T01:25:04.479Z,307.60
2022-09-20T01:26:04.495Z,338.90
2022-09-20T01:27:04.448Z,370.60
2022-09-20T01:28:04.430Z,373.80
2022-09-20T01:29:04.418Z,364.90
2022-09-20T01:30:04.406Z,368.20
2022-09-20T01:31:04.434Z,369.40
2022-09-20T01:32:04.461Z,367.70
2022-09-20T01:33:04.390Z,352.50
2022-09-20T01:34:04.379Z,328.30
2022-09-20T01:35:04.351Z,319.50
2022-09-20T01:36:04.367Z,308.80
2022-09-20T01:37:04.328Z,322.60
2022-09-20T01:38:04.327Z,341.60
2022-09-20T01:39:04.300Z,326.30
2022-09-20T01:40:04.369Z,331.40
2022-09-20T01:41:04.331Z,332.30
2022-09-20T01:42:04.267Z,331.20
2022-09-20T01:43:04.292Z,337.90
2022-09-20T01:44:04.245Z,346.50
2022-09-20T01:45:04.252Z,338.50
2022-09-20T01:46:04.343Z,324.40
2022-09-20T01:47:04.225Z,332.70
2022-09-20T01:48:04.208Z,334.30
2022-09-20T01:49:04.199Z,343.60
2022-09-20T01:50:04.174Z,352.80
2022-09-20T01:51:04.189Z,374.80
2022-09-20T01:52:04.150Z,367.10
2022-09-20T01:53:04.148Z,366.50
2022-09-20T01:54:04.151Z,368.50
2022-09-20T01:55:04.134Z,370.60
2022-09-20T01:56:04.151Z,362.90
2022-09-20T01:57:04.106Z,359.20
2022-09-20T01:58:04.093Z,358.30
2022-09-20T01:59:22.474Z,474.70
2022-09-20T02:00:05.093Z,287.60
2022-09-20T02:01:04.145Z,288.50
2022-09-20T02:02:04.110Z,289.70
2022-09-20T02:03:04.046Z,273.10
2022-09-20T02:04:04.032Z,247.40
2022-09-20T02:05:04.025Z,250.10
2022-09-20T02:06:04.041Z,423.40
2022-09-20T02:07:03.988Z,372.80
2022-09-20T02:08:03.992Z,276.60
2022-09-20T02:09:03.957Z,276.90
2022-09-20T02:10:03.976Z,268.70
2022-09-20T02:11:03.994Z,287.40
2022-09-20T02:12:03.953Z,352.60
2022-09-20T02:13:03.928Z,380.00
2022-09-20T02:14:03.909Z,254.10
2022-09-20T02:15:03.922Z,262.70
2022-09-20T02:16:03.917Z,255.80
2022-09-20T02:17:03.888Z,264.70
2022-09-20T02:18:03.876Z,407.40
2022-09-20T02:19:03.863Z,420.10
2022-09-20T02:20:03.899Z,245.10
2022-09-20T02:21:03.835Z,232.60
2022-09-20T02:22:03.812Z,225.00
2022-09-20T02:23:03.849Z,206.50
2022-09-20T02:24:03.782Z,212.20
2022-09-20T02:25:03.820Z,443.20
2022-09-20T02:26:03.797Z,266.00
2022-09-20T02:27:03.774Z,194.90
2022-09-20T02:28:03.762Z,209.10
2022-09-20T02:29:03.769Z,203.10
2022-09-20T02:30:03.741Z,218.20
2022-09-20T02:31:03.772Z,382.50
2022-09-20T02:32:03.736Z,415.00
2022-09-20T02:33:03.695Z,324.80
2022-09-20T02:34:03.679Z,305.30
2022-09-20T02:35:03.664Z,318.40
2022-09-20T02:36:03.688Z,323.70
2022-09-20T02:37:03.653Z,318.60
2022-09-20T02:38:03.644Z,327.60
2022-09-20T02:39:03.627Z,341.10
2022-09-20T02:40:03.721Z,440.00
2022-09-20T02:41:03.640Z,325.30
2022-09-20T02:42:03.598Z,275.80
2022-09-20T02:43:03.584Z,253.10
2022-09-20T02:44:03.600Z,253.00
2022-09-20T02:45:03.566Z,263.30
2022-09-20T02:46:03.626Z,258.30
2022-09-20T02:47:03.556Z,253.80
2022-09-20T02:48:03.542Z,516.80
2022-09-20T02:49:03.513Z,377.70
2022-09-20T02:50:03.500Z,279.00
2022-09-20T02:51:03.532Z,248.80
2022-09-20T02:52:03.483Z,260.60
2022-09-20T02:53:03.464Z,328.90
2022-09-20T02:54:03.438Z,401.60
2022-09-20T02:55:03.431Z,273.10
2022-09-20T02:56:03.454Z,284.10
2022-09-20T02:57:03.420Z,275.80
2022-09-20T02:58:03.421Z,464.40
2022-09-20T02:59:03.412Z,306.00
2022-09-20T03:00:03.395Z,385.50
2022-09-20T03:01:03.476Z,290.00
2022-09-20T03:02:03.437Z,282.30
2022-09-20T03:03:03.349Z,387.90
2022-09-20T03:04:03.364Z,412.90
2022-09-20T03:05:03.351Z,310.70
2022-09-20T03:06:03.370Z,322.00
2022-09-20T03:07:03.317Z,374.70
2022-09-20T03:08:03.390Z,318.10
2022-09-20T03:09:03.293Z,357.40
2022-09-20T03:10:03.274Z,341.30
2022-09-20T03:11:03.308Z,323.60
2022-09-20T03:12:03.263Z,342.40
2022-09-20T03:13:03.277Z,328.70
2022-09-20T03:14:03.237Z,370.90
2022-09-20T03:15:03.246Z,319.80
2022-09-20T03:16:03.295Z,282.70
2022-09-20T03:17:03.288Z,316.00
2022-09-20T03:18:03.195Z,309.50
2022-09-20T03:19:03.184Z,298.60
2022-09-20T03:20:03.184Z,291.50
2022-09-20T03:21:03.210Z,320.30
2022-09-20T03:22:03.157Z,311.30
2022-09-20T03:23:03.140Z,301.90
2022-09-20T03:24:03.104Z,311.60
2022-09-20T03:25:03.096Z,288.20
2022-09-20T03:26:03.122Z,303.30
2022-09-20T03:27:03.100Z,288.30
2022-09-20T03:28:03.072Z,294.90
2022-09-20T03:29:03.075Z,311.70
2022-09-20T03:30:03.054Z,324.40
2022-09-20T03:31:03.088Z,319.60
2022-09-20T03:32:03.120Z,332.80
2022-09-20T03:33:03.021Z,339.70
2022-09-20T03:34:03.009Z,340.70
2022-09-20T03:35:03.009Z,308.90
2022-09-20T03:36:03.023Z,322.10
2022-09-20T03:37:02.979Z,327.90
2022-09-20T03:38:02.972Z,314.40
2022-09-20T03:39:02.967Z,345.80
2022-09-20T03:40:03.019Z,342.20
2022-09-20T03:41:02.964Z,339.70
2022-09-20T03:42:02.917Z,316.70
2022-09-20T03:43:02.918Z,337.90
2022-09-20T03:44:02.897Z,326.30
2022-09-20T03:45:02.900Z,332.70
2022-09-20T03:46:03.011Z,348.90
2022-09-20T03:47:02.880Z,329.90
2022-09-20T03:48:02.858Z,307.70
2022-09-20T03:49:02.842Z,290.70
2022-09-20T03:50:02.840Z,304.60
2022-09-20T03:51:02.859Z,450.00
2022-09-20T03:52:02.808Z,361.60
2022-09-20T03:53:02.803Z,329.10
2022-09-20T03:54:02.789Z,316.80
2022-09-20T03:55:02.783Z,289.30
2022-09-20T03:56:02.794Z,318.00
2022-09-20T03:57:02.743Z,287.30
2022-09-20T03:58:06.800Z,297.20
2022-09-20T03:59:03.722Z,300.80
2022-09-20T04:00:02.711Z,447.50
2022-09-20T04:01:02.794Z,352.30
2022-09-20T04:02:02.742Z,296.00
2022-09-20T04:03:02.681Z,318.10
2022-09-20T04:04:02.699Z,320.60
2022-09-20T04:05:02.649Z,327.30
2022-09-20T04:06:02.684Z,300.70
2022-09-20T04:07:02.637Z,364.00
2022-09-20T04:08:02.644Z,313.70
2022-09-20T04:09:02.609Z,295.90
2022-09-20T04:10:02.613Z,303.90
2022-09-20T04:11:02.641Z,405.10
2022-09-20T04:12:02.568Z,335.70
2022-09-20T04:13:02.586Z,323.50
2022-09-20T04:14:02.553Z,325.20
2022-09-20T04:15:02.558Z,307.80
2022-09-20T04:16:02.592Z,310.70
2022-09-20T04:17:02.598Z,327.40
2022-09-20T04:18:02.513Z,317.40
2022-09-20T04:19:02.494Z,306.10
2022-09-20T04:20:02.490Z,338.70
2022-09-20T04:21:02.530Z,337.00
2022-09-20T04:22:02.483Z,297.20
2022-09-20T04:23:02.455Z,297.90
2022-09-20T04:24:02.452Z,436.50
2022-09-20T04:25:02.437Z,377.10
2022-09-20T04:26:02.461Z,347.10
2022-09-20T04:27:02.405Z,358.80
2022-09-20T04:28:02.397Z,345.60
2022-09-20T04:29:02.388Z,341.60
2022-09-20T04:30:02.375Z,276.80
2022-09-20T04:31:02.424Z,269.00
2022-09-20T04:32:02.399Z,443.90
2022-09-20T04:33:02.359Z,380.80
2022-09-20T04:34:02.335Z,320.20
2022-09-20T04:35:02.320Z,367.10
2022-09-20T04:36:02.335Z,343.00
2022-09-20T04:37:02.300Z,347.00
2022-09-20T04:38:02.294Z,342.00
2022-09-20T04:39:02.285Z,364.40
2022-09-20T04:40:02.328Z,358.90
2022-09-20T04:41:02.313Z,280.70
2022-09-20T04:42:02.303Z,280.90
2022-09-20T04:43:02.248Z,420.50
2022-09-20T04:44:02.242Z,386.20
2022-09-20T04:45:02.255Z,353.00
2022-09-20T04:46:02.283Z,359.30
2022-09-20T04:47:02.202Z,313.90
2022-09-20T04:48:02.164Z,360.90
2022-09-20T04:49:02.186Z,311.70
2022-09-20T04:50:02.195Z,293.20
2022-09-20T04:51:02.163Z,298.40
2022-09-20T04:52:02.131Z,412.90
2022-09-20T04:53:02.143Z,350.50
2022-09-20T04:54:02.109Z,323.20
2022-09-20T04:55:02.147Z,337.70
2022-09-20T04:56:02.088Z,258.50
2022-09-20T04:57:02.060Z,272.40
2022-09-20T04:58:02.076Z,433.00
2022-09-20T04:59:02.056Z,297.30
2022-09-20T05:00:02.056Z,275.90
2022-09-20T05:01:02.090Z,293.00
2022-09-20T05:02:02.062Z,300.20
2022-09-20T05:03:02.012Z,352.70
2022-09-20T05:04:01.997Z,307.10
2022-09-20T05:05:02.042Z,308.80
2022-09-20T05:06:01.976Z,348.60
2022-09-20T05:07:01.949Z,353.70
2022-09-20T05:08:01.952Z,331.20
2022-09-20T05:09:02.181Z,315.40
2022-09-20T05:10:01.942Z,325.90
2022-09-20T05:11:01.940Z,401.00
2022-09-20T05:12:01.928Z,277.00
2022-09-20T05:13:01.893Z,261.60
2022-09-20T05:14:01.896Z,265.60
2022-09-20T05:15:01.878Z,269.00
2022-09-20T05:16:01.910Z,285.50
2022-09-20T05:17:01.909Z,424.00
2022-09-20T05:18:01.825Z,288.40
2022-09-20T05:19:01.833Z,263.70
2022-09-20T05:20:01.808Z,271.80
2022-09-20T05:21:01.836Z,273.00
2022-09-20T05:22:01.795Z,286.40
2022-09-20T05:23:01.797Z,282.20
2022-09-20T05:24:01.763Z,284.90
2022-09-20T05:25:01.788Z,284.10
2022-09-20T05:26:01.796Z,292.10
2022-09-20T05:27:01.731Z,290.40
2022-09-20T05:28:01.728Z,297.30
2022-09-20T05:29:01.699Z,300.60
2022-09-20T05:30:04.933Z,309.90
2022-09-20T05:31:01.740Z,330.70
2022-09-20T05:32:01.761Z,355.10
2022-09-20T05:33:01.675Z,369.60
2022-09-20T05:34:01.668Z,393.00
2022-09-20T05:35:01.651Z,409.90
2022-09-20T05:36:01.676Z,435.80
2022-09-20T05:37:01.625Z,452.70
2022-09-20T05:38:01.613Z,476.30
2022-09-20T05:39:03.450Z,492.80
2022-09-20T05:40:01.649Z,515.40
2022-09-20T05:41:01.623Z,516.80
2022-09-20T05:42:01.570Z,513.40
2022-09-20T05:43:01.569Z,486.20
2022-09-20T05:44:01.554Z,459.60
2022-09-20T05:45:01.556Z,433.20
2022-09-20T05:46:01.632Z,393.80
2022-09-20T05:47:01.527Z,323.30
2022-09-20T05:48:01.525Z,250.80
2022-09-20T05:49:01.498Z,225.30
2022-09-20T05:50:01.477Z,241.50
2022-09-20T05:51:03.710Z,270.10
2022-09-20T05:52:01.443Z,294.50
2022-09-20T05:53:01.457Z,300.30
2022-09-20T05:54:01.428Z,292.10
2022-09-20T05:55:01.447Z,286.90
2022-09-20T05:56:01.475Z,286.20
2022-09-20T05:57:01.434Z,294.20
2022-09-20T05:58:01.417Z,305.20
2022-09-20T05:59:01.380Z,296.20
2022-09-20T06:00:01.345Z,300.50
2022-09-20T06:01:01.426Z,301.60
2022-09-20T06:02:01.416Z,306.00
2022-09-20T06:03:01.321Z,294.00
2022-09-20T06:04:01.330Z,261.00
2022-09-20T06:05:01.318Z,246.90
2022-09-20T06:06:01.330Z,225.60
2022-09-20T06:07:01.292Z,227.10
2022-09-20T06:08:01.275Z,213.10
2022-09-20T06:09:01.282Z,209.60
2022-09-20T06:10:01.245Z,207.20
2022-09-20T06:11:01.275Z,215.00
2022-09-20T06:12:01.234Z,222.50
2022-09-20T06:13:01.214Z,234.20
2022-09-20T06:14:01.212Z,238.10
2022-09-20T06:15:01.191Z,223.90
2022-09-20T06:16:01.223Z,231.70
2022-09-20T06:17:01.172Z,226.60
2022-09-20T06:18:01.209Z,231.90
2022-09-20T06:19:01.172Z,231.00
2022-09-20T06:20:01.133Z,240.40
2022-09-20T06:21:01.159Z,211.60
2022-09-20T06:22:03.717Z,197.90
2022-09-20T06:23:01.115Z,220.30
2022-09-20T06:24:01.093Z,233.60
2022-09-20T06:25:01.113Z,211.90
2022-09-20T06:26:01.108Z,247.80
2022-09-20T06:27:01.072Z,286.30
2022-09-20T06:28:01.043Z,299.30
2022-09-20T06:29:01.044Z,359.10
2022-09-20T06:30:01.042Z,225.10
2022-09-20T06:31:01.051Z,124.30
2022-09-20T06:32:00.993Z,196.50
2022-09-20T06:33:00.985Z,377.80
2022-09-20T06:34:00.974Z,288.30
2022-09-20T06:35:00.978Z,334.40
2022-09-20T06:36:00.998Z,302.60
2022-09-20T06:37:00.955Z,310.10
2022-09-20T06:38:00.948Z,169.70
2022-09-20T06:39:00.939Z,111.00
2022-09-20T06:40:01.013Z,95.80
2022-09-20T06:41:00.942Z,128.40
2022-09-20T06:42:00.885Z,150.90
2022-09-20T06:43:00.870Z,119.70
2022-09-20T06:44:00.868Z,103.90
2022-09-20T06:45:00.856Z,71.10
2022-09-20T06:46:00.928Z,39.10
2022-09-20T06:47:00.847Z,91.90
2022-09-20T06:48:00.830Z,36.80
2022-09-20T06:49:00.836Z,94.50
2022-09-20T06:50:00.804Z,25.60
2022-09-20T06:51:00.820Z,98.90
2022-09-20T06:52:00.771Z,89.60
2022-09-20T06:53:00.771Z,63.80
2022-09-20T06:54:00.757Z,99.50
2022-09-20T06:55:00.749Z,91.00
2022-09-20T06:56:00.754Z,89.10
2022-09-20T06:57:00.715Z,107.50
2022-09-20T06:58:00.710Z,301.80
2022-09-20T06:59:00.706Z,530.00
2022-09-20T07:00:00.708Z,593.60
2022-09-20T07:01:00.731Z,580.80
2022-09-20T07:02:00.681Z,190.50
2022-09-20T07:03:00.665Z,279.10
2022-09-20T07:04:00.627Z,408.70
2022-09-20T07:05:00.647Z,899.40
2022-09-20T07:06:00.681Z,281.40
2022-09-20T07:07:00.592Z,118.30
2022-09-20T07:08:00.601Z,121.90
2022-09-20T07:09:00.599Z,170.40
2022-09-20T07:10:00.581Z,123.20
2022-09-20T07:11:00.598Z,114.80
2022-09-20T07:12:00.557Z,138.60
2022-09-20T07:13:00.530Z,123.50
2022-09-20T07:14:00.549Z,167.30
2022-09-20T07:15:00.515Z,129.50
2022-09-20T07:16:00.538Z,83.40
2022-09-20T07:17:00.490Z,79.00
2022-09-20T07:18:00.505Z,83.40
2022-09-20T07:19:00.476Z,89.10
2022-09-20T07:20:00.467Z,87.20
2022-09-20T07:21:00.471Z,128.60
2022-09-20T07:22:00.442Z,158.10
2022-09-20T07:23:00.446Z,149.90
2022-09-20T07:24:00.418Z,111.20
2022-09-20T07:25:00.404Z,86.90
2022-09-20T07:26:00.480Z,25.20
2022-09-20T07:27:00.410Z,35.10
2022-09-20T07:28:00.402Z,318.00
2022-09-20T07:29:00.355Z,678.60
2022-09-20T07:30:00.360Z,492.30
2022-09-20T07:31:00.404Z,478.70
2022-09-20T07:32:00.374Z,487.60
2022-09-20T07:33:00.312Z,348.30
2022-09-20T07:34:00.290Z,422.00
2022-09-20T07:35:00.268Z,627.00
2022-09-20T07:36:00.317Z,175.80
2022-09-20T07:37:00.263Z,46.60
2022-09-20T07:38:00.265Z,30.50
2022-09-20T07:39:00.248Z,53.90
2022-09-20T07:40:00.305Z,93.00
2022-09-20T07:41:00.250Z,81.70
2022-09-20T07:42:00.226Z,115.40
2022-09-20T07:43:00.242Z,134.30
2022-09-20T07:44:00.189Z,56.30
2022-09-20T07:45:00.162Z,758.00
2022-09-20T07:46:00.253Z,893.30
2022-09-20T07:47:00.151Z,999.90
2022-09-20T07:48:00.148Z,999.90
2022-09-20T07:49:00.157Z,999.90
2022-09-20T07:50:00.166Z,999.90
2022-09-20T07:51:00.142Z,999.90
2022-09-20T07:52:00.097Z,954.70
2022-09-20T07:53:00.131Z,905.70
2022-09-20T07:54:00.076Z,896.60
2022-09-20T07:55:00.077Z,855.00
2022-09-20T07:56:00.085Z,999.90
2022-09-20T07:57:00.027Z,999.90
2022-09-20T07:58:00.052Z,865.20
2022-09-20T07:59:00.021Z,817.50
2022-09-20T08:00:00.030Z,971.90
2022-09-20T08:01:00.055Z,999.90
2022-09-20T08:02:00.050Z,999.90
2022-09-20T08:02:59.962Z,899.90
2022-09-20T08:03:59.954Z,999.90
2022-09-20T08:04:59.937Z,999.90
2022-09-20T08:05:59.982Z,999.90
2022-09-20T08:06:59.943Z,999.90
2022-09-20T08:07:59.915Z,999.90
2022-09-20T08:08:59.890Z,999.90
2022-09-20T08:09:59.910Z,999.90
2022-09-20T08:10:59.925Z,999.90
2022-09-20T08:14:05.133Z,999.90
2022-09-20T08:14:05.934Z,999.90
2022-09-20T08:15:00.873Z,999.90
2022-09-20T08:15:59.863Z,999.90
2022-09-20T08:16:59.850Z,975.60
2022-09-20T08:17:59.792Z,606.20
2022-09-20T08:18:59.790Z,603.00
2022-09-20T08:19:59.776Z,863.50
2022-09-20T08:20:59.812Z,999.90
2022-09-20T08:21:59.752Z,999.90
2022-09-20T08:23:22.114Z,999.90
2022-09-20T08:24:00.747Z,999.90
2022-09-20T08:24:59.708Z,999.90
2022-09-20T08:25:59.765Z,999.90
2022-09-20T08:26:59.708Z,999.90
2022-09-20T08:27:59.702Z,999.90
2022-09-20T08:28:59.684Z,999.90
2022-09-20T08:29:59.673Z,999.90
2022-09-20T08:30:59.688Z,999.90
2022-09-20T08:31:59.672Z,999.90
2022-09-20T08:32:59.667Z,999.90
2022-09-20T08:33:59.627Z,999.90
2022-09-20T08:34:59.612Z,999.90
2022-09-20T08:35:59.633Z,999.90
2022-09-20T08:36:59.582Z,999.90
2022-09-20T08:39:57.107Z,999.90
2022-09-20T08:40:00.758Z,999.90
2022-09-20T08:40:59.589Z,999.90
2022-09-20T08:41:59.526Z,999.90
2022-09-20T08:42:59.520Z,999.90
2022-09-20T08:43:59.486Z,999.90
2022-09-20T08:44:59.568Z,999.90
2022-09-20T08:45:59.746Z,999.90
2022-09-20T08:46:59.481Z,999.90
2022-09-20T08:47:59.473Z,999.90
2022-09-20T08:48:59.456Z,999.90
2022-09-20T08:49:59.484Z,999.90
2022-09-20T08:50:59.953Z,999.90
2022-09-20T08:51:59.420Z,999.90
2022-09-20T08:53:00.695Z,999.90
2022-09-20T08:53:59.423Z,999.90
2022-09-20T08:54:59.419Z,999.90
2022-09-20T08:55:59.408Z,999.90
2022-09-20T08:56:59.359Z,999.90
2022-09-20T08:57:59.368Z,999.90
2022-09-20T08:58:59.335Z,733.30
2022-09-20T08:59:59.375Z,999.90
2022-09-20T09:00:59.361Z,999.90
2022-09-20T09:01:59.344Z,605.20
2022-09-20T09:02:59.302Z,13.10
2022-09-20T09:03:59.275Z,10.90
2022-09-20T09:04:59.275Z,9.20
2022-09-20T09:05:59.249Z,8.90
2022-09-20T09:06:59.228Z,8.20
2022-09-20T09:07:59.240Z,7.70
2022-09-20T09:08:59.212Z,6.10
2022-09-20T09:09:59.243Z,8.70
2022-09-20T09:10:59.235Z,12.10
2022-09-20T09:11:59.199Z,11.70
2022-09-20T09:12:59.176Z,13.00
2022-09-20T09:13:59.166Z,15.90
2022-09-20T09:14:59.176Z,35.30
2022-09-20T09:15:59.144Z,999.90
2022-09-20T09:16:59.198Z,999.90
2022-09-20T09:17:59.127Z,999.90
2022-09-20T09:18:59.126Z,999.90
2022-09-20T09:19:59.148Z,999.90
2022-09-20T09:20:59.086Z,999.90
2022-09-20T09:21:59.083Z,999.90
2022-09-20T09:22:59.063Z,999.90
2022-09-20T09:23:59.057Z,999.90
2022-09-20T09:24:59.101Z,999.90
2022-09-20T09:25:59.038Z,999.90
2022-09-20T09:26:59.009Z,999.90
2022-09-20T09:27:59.014Z,999.90
2022-09-20T09:28:58.990Z,999.90
2022-09-20T09:29:58.971Z,999.90
2022-09-20T09:30:59.013Z,999.90
2022-09-20T09:31:59.048Z,999.90
2022-09-20T09:32:58.950Z,999.90
2022-09-20T09:33:58.958Z,224.60
2022-09-20T09:34:58.915Z,12.70
2022-09-20T09:35:58.943Z,12.80
2022-09-20T09:36:58.890Z,8.40
2022-09-20T09:37:58.942Z,7.90
2022-09-20T09:38:58.869Z,7.30
2022-09-20T09:39:58.977Z,7.30
2022-09-20T09:40:58.902Z,7.30
2022-09-20T09:41:58.853Z,7.10
2022-09-20T09:42:58.877Z,7.00
2022-09-20T09:43:58.834Z,7.40
2022-09-20T09:44:58.807Z,9.20
2022-09-20T09:45:58.866Z,8.10
2022-09-20T09:46:58.796Z,8.20
2022-09-20T09:47:58.767Z,8.10
2022-09-20T09:48:58.780Z,8.90
2022-09-20T09:50:01.631Z,8.50
2022-09-20T09:50:59.789Z,7.10
2022-09-20T09:51:58.739Z,7.50
2022-09-20T09:52:58.740Z,10.80
2022-09-20T09:53:58.715Z,10.50
2022-09-20T09:55:01.213Z,9.00
2022-09-20T09:55:58.760Z,8.20
2022-09-20T09:56:58.699Z,8.00
2022-09-20T09:57:58.675Z,8.40
2022-09-20T09:58:58.650Z,7.50
2022-09-20T09:59:58.725Z,7.50
2022-09-20T10:00:58.736Z,7.60
2022-09-20T10:01:58.698Z,7.90
2022-09-20T10:02:58.639Z,9.00
2022-09-20T10:03:58.644Z,10.40
2022-09-20T10:04:58.594Z,12.80
2022-09-20T10:05:58.623Z,14.10
2022-09-20T10:06:58.540Z,21.70
2022-09-20T10:07:58.545Z,16.00
2022-09-20T10:08:58.569Z,9.20
2022-09-20T10:09:58.540Z,7.50
2022-09-20T10:10:58.577Z,7.60
2022-09-20T10:11:58.511Z,7.90
2022-09-20T10:12:58.509Z,7.80
2022-09-20T10:13:58.501Z,7.10
2022-09-20T10:14:58.478Z,7.30
2022-09-20T10:15:58.502Z,6.90
2022-09-20T10:16:58.531Z,7.00
2022-09-20T10:17:58.462Z,6.60
2022-09-20T10:18:58.428Z,6.50
2022-09-20T10:19:58.443Z,7.20
2022-09-20T10:20:58.462Z,7.10
2022-09-20T10:21:58.416Z,7.60
2022-09-20T10:23:30.148Z,6.90
2022-09-20T10:24:03.639Z,7.00
2022-09-20T10:24:59.373Z,7.40
2022-09-20T10:25:58.409Z,6.40
2022-09-20T10:26:58.346Z,7.40
2022-09-20T10:27:58.344Z,7.30
2022-09-20T10:28:58.331Z,7.50
2022-09-20T10:29:58.316Z,7.60
2022-09-20T10:30:58.469Z,8.00
2022-09-20T10:31:58.299Z,8.30
2022-09-20T10:32:58.289Z,10.10
2022-09-20T10:33:58.289Z,8.50
2022-09-20T10:34:58.270Z,10.30
2022-09-20T10:35:58.309Z,10.40
2022-09-20T10:36:58.235Z,7.70
2022-09-20T10:37:58.221Z,8.70
2022-09-20T10:38:58.214Z,10.10
2022-09-20T10:39:58.268Z,7.80
2022-09-20T10:40:58.190Z,7.50
2022-09-20T10:41:58.179Z,7.90
2022-09-20T10:42:58.188Z,8.00
2022-09-20T10:44:02.809Z,7.50
2022-09-20T10:44:59.190Z,7.90
2022-09-20T10:46:59.154Z,7.30
2022-09-20T10:47:58.121Z,7.20
2022-09-20T10:48:58.125Z,7.40
2022-09-20T10:49:58.109Z,7.50
2022-09-20T10:50:58.112Z,7.10
2022-09-20T10:51:58.077Z,7.60
2022-09-20T10:52:58.052Z,7.50
2022-09-20T10:53:58.059Z,8.10
2022-09-20T10:54:58.049Z,8.00
2022-09-20T10:55:58.057Z,7.90
2022-09-20T10:56:58.019Z,8.10
2022-09-20T10:57:58.007Z,7.80
2022-09-20T10:58:58.001Z,7.00
2022-09-20T10:59:58.021Z,7.60
2022-09-20T11:00:58.100Z,8.00
2022-09-20T11:01:57.991Z,7.90
2022-09-20T11:02:57.962Z,7.70
2022-09-20T11:03:57.960Z,7.80
2022-09-20T11:04:57.925Z,8.00
2022-09-20T11:05:57.937Z,8.10
2022-09-20T11:06:57.889Z,7.50
2022-09-20T11:07:57.909Z,7.60
2022-09-20T11:08:57.896Z,8.20
2022-09-20T11:09:57.876Z,8.00
2022-09-20T11:10:57.971Z,7.80
2022-09-20T11:11:57.860Z,7.80
2022-09-20T11:12:57.846Z,7.30
2022-09-20T11:13:57.854Z,8.30
2022-09-20T11:14:57.820Z,8.00
2022-09-20T11:15:57.853Z,8.50
2022-09-20T11:16:57.917Z,8.60
2022-09-20T11:17:57.782Z,8.80
2022-09-20T11:18:57.778Z,7.80
2022-09-20T11:19:57.768Z,7.60
2022-09-20T11:20:57.783Z,8.20
2022-09-20T11:21:57.744Z,7.70
2022-09-20T11:22:57.715Z,7.00
2022-09-20T11:23:57.711Z,7.80
2022-09-20T11:24:57.708Z,9.60
2022-09-20T11:25:57.730Z,10.50
2022-09-20T11:26:57.724Z,8.30
2022-09-20T11:27:57.683Z,8.40
2022-09-20T11:28:57.681Z,10.20
2022-09-20T11:29:57.665Z,10.70
2022-09-20T11:30:57.688Z,12.50
2022-09-20T11:31:57.750Z,11.90
2022-09-20T11:32:57.629Z,15.10
2022-09-20T11:33:57.601Z,10.30
2022-09-20T11:34:57.602Z,15.60
2022-09-20T11:35:57.627Z,26.10
2022-09-20T11:36:57.606Z,34.10
2022-09-20T11:37:57.544Z,999.90
2022-09-20T11:38:57.533Z,999.90
2022-09-20T11:39:57.584Z,999.90
2022-09-20T11:40:57.561Z,999.90
2022-09-20T11:41:57.513Z,999.90
2022-09-20T11:42:57.512Z,999.90
2022-09-20T11:43:57.496Z,999.90
2022-09-20T11:44:57.477Z,999.90
2022-09-20T11:45:57.599Z,999.90
2022-09-20T11:46:57.460Z,999.90
2022-09-20T11:47:57.443Z,999.90
2022-09-20T11:48:57.448Z,163.10
2022-09-20T11:49:57.416Z,157.20
2022-09-20T11:50:57.447Z,173.50
2022-09-20T11:51:57.397Z,125.70
2022-09-20T11:52:57.401Z,149.20
2022-09-20T11:53:57.374Z,157.00
2022-09-20T11:54:57.360Z,271.20
2022-09-20T11:55:57.387Z,235.50
2022-09-20T11:56:57.339Z,276.90
2022-09-20T11:57:57.335Z,311.40
2022-09-20T11:58:57.320Z,325.40
2022-09-20T11:59:57.324Z,333.00
2022-09-20T12:00:57.341Z,300.20
2022-09-20T12:01:57.325Z,298.00
2022-09-20T12:02:57.374Z,274.60
2022-09-20T12:04:20.558Z,297.20
2022-09-20T12:04:58.306Z,300.60
2022-09-20T12:05:57.301Z,308.20
2022-09-20T12:06:57.240Z,331.20
2022-09-20T12:07:57.221Z,364.40
2022-09-20T12:08:57.201Z,354.20
2022-09-20T12:09:57.176Z,255.60
2022-09-20T12:10:57.215Z,224.50
2022-09-20T12:11:57.153Z,235.80
2022-09-20T12:12:57.163Z,292.30
2022-09-20T12:13:57.153Z,345.70
2022-09-20T12:14:57.140Z,356.50
2022-09-20T12:15:57.169Z,353.50
2022-09-20T12:16:57.209Z,322.50
2022-09-20T12:17:57.096Z,315.10
2022-09-20T12:18:57.086Z,319.20
2022-09-20T12:19:57.071Z,354.40
2022-09-20T12:20:57.108Z,386.20
2022-09-20T12:21:57.059Z,414.60
2022-09-20T12:22:57.031Z,437.30
2022-09-20T12:23:57.059Z,392.00
2022-09-20T12:24:57.017Z,316.80
2022-09-20T12:25:57.042Z,213.00
2022-09-20T12:26:57.004Z,194.50
2022-09-20T12:27:56.993Z,173.40
2022-09-20T12:28:56.975Z,162.60
2022-09-20T12:29:56.956Z,121.80
2022-09-20T12:30:57.002Z,91.70
2022-09-20T12:31:56.973Z,108.00
2022-09-20T12:32:56.936Z,110.70
2022-09-20T12:33:56.920Z,123.70
2022-09-20T12:34:56.975Z,107.30
2022-09-20T12:35:56.938Z,79.20
2022-09-20T12:36:56.872Z,90.60
2022-09-20T12:37:56.878Z,81.90
2022-09-20T12:38:56.861Z,85.70
2022-09-20T12:39:56.933Z,94.20